createdAt,value
2023-01-26T00:02:22.990Z,48.03
2023-01-26T00:04:51.434Z,48.42
2023-01-26T00:07:19.820Z,45.60
2023-01-26T00:09:48.031Z,46.70
2023-01-26T00:12:16.460Z,48.95
2023-01-26T00:14:52.111Z,45.50
2023-01-26T00:17:28.742Z,47.80
2023-01-26T00:19:58.903Z,45.05
2023-01-26T00:22:28.484Z,44.03
2023-01-26T00:24:56.704Z,46.42
2023-01-26T00:27:25.023Z,45.42
2023-01-26T00:29:54.996Z,44.13
2023-01-26T00:32:23.171Z,46.03
2023-01-26T00:34:51.896Z,45.50
2023-01-26T00:37:20.439Z,46.58
2023-01-26T00:39:48.665Z,44.15
2023-01-26T00:42:17.139Z,46.22
2023-01-26T00:44:45.654Z,45.40
2023-01-26T00:47:15.800Z,44.33
2023-01-26T00:49:44.396Z,42.17
2023-01-26T00:52:13.558Z,44.97
2023-01-26T00:54:41.826Z,42.72
2023-01-26T00:57:10.379Z,43.45
2023-01-26T00:59:38.879Z,42.47
2023-01-26T01:02:07.606Z,43.50
2023-01-26T01:04:37.515Z,43.35
2023-01-26T01:07:05.971Z,42.33
2023-01-26T01:09:34.239Z,41.00
2023-01-26T01:12:02.504Z,41.38
2023-01-26T01:14:30.880Z,40.53
2023-01-26T01:16:59.097Z,40.25
2023-01-26T01:19:27.783Z,38.85
2023-01-26T01:21:57.403Z,39.45
2023-01-26T01:24:25.957Z,38.10
2023-01-26T01:26:54.295Z,39.60
2023-01-26T01:29:22.745Z,36.10
2023-01-26T01:31:50.970Z,37.50
2023-01-26T01:34:19.574Z,37.97
2023-01-26T01:36:47.867Z,35.53
2023-01-26T01:41:44.833Z,36.13
2023-01-26T01:44:15.654Z,36.33
2023-01-26T01:46:48.565Z,36.63
2023-01-26T01:49:21.878Z,34.88
2023-01-26T01:51:55.500Z,34.65
2023-01-26T01:57:02.061Z,34.97
2023-01-26T01:59:32.633Z,34.60
2023-01-26T02:02:01.594Z,35.45
2023-01-26T02:04:30.228Z,36.22
2023-01-26T02:07:01.517Z,34.80
2023-01-26T02:09:52.522Z,33.47
2023-01-26T02:12:25.117Z,34.45
2023-01-26T02:14:54.874Z,32.33
2023-01-26T02:17:23.417Z,35.20
2023-01-26T02:19:59.785Z,34.40
2023-01-26T02:22:38.639Z,35.80
2023-01-26T02:25:18.976Z,32.33
2023-01-26T02:27:49.679Z,32.17
2023-01-26T02:30:18.807Z,31.35
2023-01-26T02:32:47.241Z,32.45
2023-01-26T02:35:15.867Z,31.25
2023-01-26T02:37:44.092Z,31.45
2023-01-26T02:40:18.258Z,30.38
2023-01-26T02:42:48.369Z,31.63
2023-01-26T02:45:18.257Z,30.67
2023-01-26T02:47:46.720Z,31.83
2023-01-26T02:50:14.636Z,30.20
2023-01-26T02:52:42.985Z,28.80
2023-01-26T02:55:22.912Z,28.85
2023-01-26T02:57:54.413Z,29.80
2023-01-26T03:00:24.581Z,30.92
2023-01-26T03:02:54.382Z,28.10
2023-01-26T03:05:22.788Z,29.65
2023-01-26T03:07:51.498Z,29.48
2023-01-26T03:10:19.983Z,30.25
2023-01-26T03:12:48.243Z,28.40
2023-01-26T03:15:43.108Z,27.63
2023-01-26T03:18:36.697Z,27.13
2023-01-26T03:21:24.952Z,27.48
2023-01-26T03:24:10.806Z,25.95
2023-01-26T03:26:57.829Z,25.23
2023-01-26T03:29:26.706Z,27.60
2023-01-26T03:31:56.707Z,25.92
2023-01-26T03:34:25.035Z,26.35
2023-01-26T03:36:53.248Z,26.25
2023-01-26T03:39:39.669Z,26.38
2023-01-26T03:42:25.443Z,26.67
2023-01-26T03:45:11.906Z,25.40
2023-01-26T03:47:58.922Z,26.48
2023-01-26T03:50:45.499Z,24.98
2023-01-26T03:53:34.932Z,23.77
2023-01-26T03:56:22.394Z,27.17
2023-01-26T03:58:52.966Z,25.85
2023-01-26T04:01:26.519Z,26.20
2023-01-26T04:07:05.565Z,24.05
2023-01-26T04:09:34.502Z,24.70
2023-01-26T04:12:02.891Z,23.83
2023-01-26T04:14:50.461Z,23.48
2023-01-26T04:17:37.245Z,24.05
2023-01-26T04:20:25.779Z,23.50
2023-01-26T04:22:54.209Z,24.75
2023-01-26T04:25:23.894Z,22.65
2023-01-26T04:27:52.344Z,24.00
2023-01-26T04:30:21.240Z,24.33
2023-01-26T04:32:49.499Z,22.40
2023-01-26T04:35:19.484Z,23.35
2023-01-26T04:37:49.047Z,23.00
2023-01-26T04:40:17.692Z,23.48
2023-01-26T04:42:46.154Z,22.33
2023-01-26T04:45:14.515Z,22.13
2023-01-26T04:47:43.196Z,20.55
2023-01-26T04:50:12.500Z,19.92
2023-01-26T04:52:42.426Z,20.52
2023-01-26T04:55:11.202Z,20.08
2023-01-26T04:57:39.678Z,21.17
2023-01-26T05:00:10.792Z,19.88
2023-01-26T05:02:40.717Z,19.60
2023-01-26T05:05:09.765Z,19.52
2023-01-26T05:07:37.981Z,19.15
2023-01-26T05:10:08.691Z,21.58
2023-01-26T05:12:38.351Z,19.90
2023-01-26T05:15:07.411Z,18.25
2023-01-26T05:17:36.331Z,18.48
2023-01-26T05:20:05.495Z,19.08
2023-01-26T05:22:33.919Z,18.15
2023-01-26T05:25:02.392Z,17.35
2023-01-26T05:27:32.120Z,17.25
2023-01-26T05:30:01.013Z,16.27
2023-01-26T05:32:29.679Z,17.45
2023-01-26T05:34:57.969Z,16.30
2023-01-26T05:37:27.429Z,17.33
2023-01-26T05:39:55.976Z,16.35
2023-01-26T05:51:08.777Z,15.20
2023-01-26T05:53:44.362Z,15.65
2023-01-26T05:56:12.754Z,16.27
2023-01-26T05:58:40.960Z,16.67
2023-01-26T06:01:09.452Z,15.65
2023-01-26T06:03:38.003Z,16.00
2023-01-26T06:06:08.159Z,15.07
2023-01-26T06:08:36.342Z,15.65
2023-01-26T06:11:04.832Z,15.98
2023-01-26T06:13:33.007Z,16.00
2023-01-26T06:16:02.228Z,14.75
2023-01-26T06:18:30.858Z,15.70
2023-01-26T06:21:01.059Z,15.65
2023-01-26T06:23:32.127Z,15.40
2023-01-26T06:26:01.345Z,16.35
2023-01-26T06:28:30.040Z,14.73
2023-01-26T06:31:01.320Z,15.85
2023-01-26T06:33:29.710Z,15.30
2023-01-26T06:35:57.872Z,14.07
2023-01-26T06:38:26.204Z,15.85
2023-01-26T06:40:55.772Z,15.35
2023-01-26T06:43:24.196Z,15.18
2023-01-26T06:45:52.817Z,14.43
2023-01-26T06:48:21.069Z,16.48
2023-01-26T06:50:50.780Z,15.20
2023-01-26T06:53:34.308Z,15.85
2023-01-26T06:56:03.935Z,14.90
2023-01-26T06:58:32.164Z,17.27
2023-01-26T07:01:01.330Z,16.02
2023-01-26T07:03:29.617Z,17.25
2023-01-26T07:05:57.835Z,15.75
2023-01-26T07:08:26.314Z,15.95
2023-01-26T07:10:54.474Z,17.75
2023-01-26T07:13:24.159Z,16.10
2023-01-26T07:15:52.533Z,17.27
2023-01-26T07:18:20.727Z,17.70
2023-01-26T07:20:49.131Z,31.42
2023-01-26T07:23:17.778Z,19.35
2023-01-26T07:25:46.014Z,19.00
2023-01-26T07:28:14.222Z,17.77
2023-01-26T07:30:43.939Z,17.75
2023-01-26T07:33:12.409Z,18.60
2023-01-26T07:35:40.524Z,19.27
2023-01-26T07:38:08.809Z,20.33
2023-01-26T07:40:37.047Z,18.75
2023-01-26T07:43:05.445Z,20.42
2023-01-26T07:45:34.555Z,19.90
2023-01-26T07:48:04.305Z,21.58
2023-01-26T07:50:32.748Z,21.42
2023-01-26T07:53:02.071Z,22.20
2023-01-26T07:55:30.589Z,21.33
2023-01-26T07:57:59.031Z,21.13
2023-01-26T08:00:27.287Z,22.52
2023-01-26T08:02:55.673Z,22.80
2023-01-26T08:05:25.521Z,22.55
2023-01-26T08:07:54.241Z,23.80
2023-01-26T08:10:22.641Z,23.85
2023-01-26T08:12:50.855Z,23.40
2023-01-26T08:15:19.438Z,23.60
2023-01-26T08:17:47.820Z,23.80
2023-01-26T08:20:16.176Z,22.35
2023-01-26T08:22:45.968Z,21.23
2023-01-26T08:25:14.667Z,22.73
2023-01-26T08:27:42.850Z,21.55
2023-01-26T08:30:12.798Z,22.15
2023-01-26T08:32:41.493Z,23.20
2023-01-26T08:35:10.428Z,22.92
2023-01-26T08:37:38.952Z,22.23
2023-01-26T08:40:10.821Z,23.90
2023-01-26T08:42:39.259Z,22.00
2023-01-26T08:45:08.367Z,19.48
2023-01-26T08:47:36.823Z,20.08
2023-01-26T08:50:05.567Z,20.23
2023-01-26T08:52:33.867Z,20.48
2023-01-26T08:55:03.539Z,21.77
2023-01-26T08:57:33.244Z,20.20
2023-01-26T09:00:01.484Z,19.75
2023-01-26T09:02:30.193Z,19.98
2023-01-26T09:04:58.775Z,19.85
2023-01-26T09:07:26.970Z,19.30
2023-01-26T09:09:55.722Z,20.48
2023-01-26T09:12:26.351Z,20.48
2023-01-26T09:14:56.051Z,18.92
2023-01-26T09:17:24.683Z,19.95
2023-01-26T09:19:52.870Z,21.52
2023-01-26T09:22:21.056Z,22.20
2023-01-26T09:24:49.795Z,21.73
2023-01-26T09:27:18.044Z,22.60
2023-01-26T09:29:46.567Z,23.77
2023-01-26T09:32:16.463Z,25.30
2023-01-26T09:34:45.991Z,26.25
2023-01-26T09:37:14.899Z,26.58
2023-01-26T09:39:43.619Z,27.48
2023-01-26T09:42:39.331Z,26.63
2023-01-26T09:45:25.895Z,28.30
2023-01-26T09:48:25.169Z,28.95
2023-01-26T09:50:58.986Z,30.63
2023-01-26T09:55:57.647Z,29.77
2023-01-26T09:58:34.630Z,30.92
2023-01-26T10:01:04.704Z,31.13
2023-01-26T10:03:41.013Z,33.00
2023-01-26T10:06:17.375Z,32.63
2023-01-26T10:08:46.299Z,38.42
2023-01-26T10:11:20.758Z,36.60
2023-01-26T10:13:55.619Z,33.05
2023-01-26T10:16:25.356Z,32.97
2023-01-26T10:19:01.264Z,30.73
2023-01-26T10:21:34.477Z,27.55
2023-01-26T10:24:04.195Z,30.55
2023-01-26T10:26:34.536Z,28.50
2023-01-26T10:29:03.335Z,25.23
2023-01-26T10:31:33.836Z,23.38
2023-01-26T10:34:11.642Z,21.52
2023-01-26T10:36:42.160Z,21.00
2023-01-26T10:39:13.568Z,20.85
2023-01-26T10:41:58.142Z,20.95
2023-01-26T10:44:34.296Z,17.80
2023-01-26T10:47:16.685Z,16.67
2023-01-26T10:49:46.560Z,15.43
2023-01-26T10:52:18.948Z,13.50
2023-01-26T10:54:47.682Z,13.02
2023-01-26T10:57:19.779Z,12.73
2023-01-26T10:59:54.921Z,9.95
2023-01-26T11:02:29.140Z,8.75
2023-01-26T11:05:19.546Z,8.00
2023-01-26T11:07:49.608Z,7.07
2023-01-26T11:10:23.800Z,7.20
2023-01-26T11:12:53.967Z,5.80
2023-01-26T11:15:23.858Z,5.80
2023-01-26T11:17:59.660Z,5.22
2023-01-26T11:20:47.080Z,4.32
2023-01-26T11:23:24.209Z,4.57
2023-01-26T11:26:07.755Z,4.70
2023-01-26T11:28:47.272Z,4.93
2023-01-26T11:31:30.614Z,4.88
2023-01-26T11:34:10.152Z,3.78
2023-01-26T11:36:48.965Z,3.72
2023-01-26T11:39:26.697Z,3.78
2023-01-26T11:42:07.861Z,4.07
2023-01-26T11:45:02.718Z,3.47
2023-01-26T11:47:43.876Z,3.40
2023-01-26T11:50:24.854Z,3.83
2023-01-26T11:53:16.022Z,4.30
2023-01-26T11:55:56.393Z,4.05
2023-01-26T11:58:32.547Z,3.58
2023-01-26T12:01:03.628Z,4.00
2023-01-26T12:03:40.288Z,4.18
2023-01-26T12:06:17.056Z,4.18
2023-01-26T12:08:52.858Z,4.10
2023-01-26T12:11:25.617Z,4.63
2023-01-26T12:14:06.550Z,3.97
2023-01-26T12:16:42.629Z,5.10
2023-01-26T12:19:17.092Z,4.07
2023-01-26T12:21:47.048Z,4.15
2023-01-26T12:24:54.080Z,4.22
2023-01-26T12:27:21.052Z,4.15
2023-01-26T12:29:53.247Z,4.25
2023-01-26T12:32:22.861Z,4.53
2023-01-26T12:34:51.113Z,3.33
2023-01-26T12:37:35.850Z,4.25
2023-01-26T12:40:17.440Z,4.03
2023-01-26T12:42:50.862Z,4.00
2023-01-26T12:45:22.250Z,3.28
2023-01-26T12:47:53.613Z,3.33
2023-01-26T12:50:28.091Z,2.95
2023-01-26T12:53:01.282Z,3.20
2023-01-26T12:55:35.980Z,4.97
2023-01-26T12:58:06.756Z,3.28
2023-01-26T13:00:38.191Z,2.90
2023-01-26T13:03:15.355Z,3.17
2023-01-26T13:05:58.146Z,3.22
2023-01-26T13:08:49.088Z,3.45
2023-01-26T13:11:48.172Z,3.08
2023-01-26T13:14:37.598Z,2.97
2023-01-26T13:17:42.721Z,3.10
2023-01-26T13:20:42.347Z,3.13
2023-01-26T13:23:53.108Z,2.78
2023-01-26T13:26:47.526Z,2.70
2023-01-26T13:29:36.200Z,3.50
2023-01-26T13:32:34.182Z,2.83
2023-01-26T13:35:05.603Z,2.95
2023-01-26T13:37:47.698Z,2.38
2023-01-26T13:40:20.297Z,3.38
2023-01-26T13:42:57.981Z,2.95
2023-01-26T13:45:34.017Z,3.67
2023-01-26T13:48:05.784Z,2.85
2023-01-26T13:50:37.680Z,3.40
2023-01-26T13:53:37.167Z,3.30
2023-01-26T13:56:08.028Z,2.78
2023-01-26T13:58:37.664Z,2.95
2023-01-26T14:01:08.454Z,3.13
2023-01-26T14:03:36.959Z,3.17
2023-01-26T14:06:09.615Z,3.00
2023-01-26T14:08:39.574Z,2.92
2023-01-26T14:11:19.236Z,2.67
2023-01-26T14:13:53.077Z,3.15
2023-01-26T14:16:26.432Z,3.70
2023-01-26T14:19:07.397Z,2.78
2023-01-26T14:21:47.921Z,2.90
2023-01-26T14:24:16.231Z,3.00
2023-01-26T14:26:44.918Z,2.72
2023-01-26T14:29:22.759Z,2.65
2023-01-26T14:31:52.570Z,3.03
2023-01-26T14:34:23.129Z,2.85
2023-01-26T14:37:06.558Z,3.83
2023-01-26T14:39:35.043Z,3.00
2023-01-26T14:42:04.308Z,3.03
2023-01-26T14:44:34.105Z,2.75
2023-01-26T14:47:08.216Z,2.72
2023-01-26T14:49:44.177Z,2.47
2023-01-26T14:52:23.976Z,2.72
2023-01-26T14:54:54.596Z,3.22
2023-01-26T14:57:25.416Z,2.40
2023-01-26T15:00:00.985Z,2.17
2023-01-26T15:02:37.372Z,2.53
2023-01-26T15:05:13.417Z,2.50
2023-01-26T15:07:44.989Z,2.15
2023-01-26T15:10:29.067Z,2.50
2023-01-26T15:12:59.668Z,2.33
2023-01-26T15:15:32.366Z,2.70
2023-01-26T15:18:18.426Z,3.08
2023-01-26T15:21:00.448Z,2.88
2023-01-26T15:23:31.771Z,3.72
2023-01-26T15:26:07.447Z,3.47
2023-01-26T15:28:37.193Z,3.30
2023-01-26T15:31:07.540Z,3.67
2023-01-26T15:33:54.607Z,3.83
2023-01-26T15:36:35.705Z,3.53
2023-01-26T15:39:12.983Z,3.67
2023-01-26T15:41:41.946Z,3.25
2023-01-26T15:44:15.973Z,2.90
2023-01-26T15:46:46.177Z,3.10
2023-01-26T15:49:15.403Z,4.35
2023-01-26T15:51:43.705Z,3.78
2023-01-26T15:54:12.946Z,4.75
2023-01-26T15:56:41.415Z,3.58
2023-01-26T15:59:09.746Z,3.20
2023-01-26T16:01:38.114Z,4.00
2023-01-26T16:04:07.900Z,3.25
2023-01-26T16:06:36.230Z,3.95
2023-01-26T16:09:04.639Z,4.60
2023-01-26T16:11:35.365Z,6.65
2023-01-26T16:14:04.560Z,3.47
2023-01-26T16:16:33.590Z,2.97
2023-01-26T16:19:01.949Z,3.70
2023-01-26T16:21:35.183Z,3.30
2023-01-26T16:24:03.834Z,3.90
2023-01-26T16:26:34.027Z,3.92
2023-01-26T16:29:02.516Z,3.83
2023-01-26T16:31:32.527Z,3.97
2023-01-26T16:34:01.301Z,3.17
2023-01-26T16:36:30.416Z,3.45
2023-01-26T16:39:00.141Z,3.47
2023-01-26T16:41:29.774Z,3.60
2023-01-26T16:44:00.703Z,3.65
2023-01-26T16:46:30.523Z,3.38
2023-01-26T16:48:59.024Z,3.88
2023-01-26T16:51:30.192Z,3.88
2023-01-26T16:54:00.089Z,3.00
2023-01-26T16:56:29.198Z,2.90
2023-01-26T16:58:57.797Z,3.08
2023-01-26T17:01:28.933Z,2.65
2023-01-26T17:03:57.877Z,2.83
2023-01-26T17:06:26.377Z,2.42
2023-01-26T17:08:54.538Z,3.53
2023-01-26T17:11:30.016Z,2.75
2023-01-26T17:13:59.440Z,3.10
2023-01-26T17:16:32.206Z,3.22
2023-01-26T17:19:00.683Z,3.93
2023-01-26T17:21:29.006Z,4.10
2023-01-26T17:23:59.139Z,4.15
2023-01-26T17:26:29.165Z,4.30
2023-01-26T17:28:57.702Z,3.70
2023-01-26T17:31:27.040Z,3.70
2023-01-26T17:33:56.299Z,3.10
2023-01-26T17:36:24.692Z,3.53
2023-01-26T17:38:53.642Z,3.63
2023-01-26T17:41:21.962Z,3.85
2023-01-26T17:43:52.019Z,2.47
2023-01-26T17:46:22.356Z,2.60
2023-01-26T17:48:51.185Z,2.67
2023-01-26T17:51:21.151Z,2.45
2023-01-26T17:53:50.869Z,2.88
2023-01-26T17:56:20.623Z,2.40
2023-01-26T17:58:50.076Z,3.90
2023-01-26T18:01:20.740Z,4.38
2023-01-26T18:03:49.881Z,3.55
2023-01-26T18:06:18.331Z,3.42
2023-01-26T18:08:46.995Z,3.30
2023-01-26T18:11:16.980Z,2.60
2023-01-26T18:13:45.653Z,2.97
2023-01-26T18:16:18.297Z,2.85
2023-01-26T18:18:48.598Z,2.60
2023-01-26T18:21:18.753Z,2.35
2023-01-26T18:23:47.753Z,2.42
2023-01-26T18:26:16.563Z,2.63
2023-01-26T18:28:45.880Z,2.00
2023-01-26T18:31:17.048Z,2.88
2023-01-26T18:33:45.668Z,2.90
2023-01-26T18:36:18.338Z,3.10
2023-01-26T18:38:50.916Z,4.25
2023-01-26T18:41:20.749Z,8.10
2023-01-26T18:43:51.950Z,3.22
2023-01-26T18:46:20.606Z,2.97
2023-01-26T18:48:48.819Z,2.88
2023-01-26T18:51:19.316Z,3.00
2023-01-26T18:53:47.665Z,2.60
2023-01-26T18:56:17.833Z,2.75
2023-01-26T18:58:46.469Z,2.88
2023-01-26T19:01:16.584Z,3.05
2023-01-26T19:03:47.644Z,3.10
2023-01-26T19:06:19.815Z,3.75
2023-01-26T19:08:49.129Z,3.70
2023-01-26T19:11:17.437Z,2.90
2023-01-26T19:13:48.862Z,2.75
2023-01-26T19:16:17.170Z,2.72
2023-01-26T19:18:45.712Z,2.47
2023-01-26T19:21:14.138Z,5.97
2023-01-26T19:23:45.331Z,5.70
2023-01-26T19:26:19.491Z,4.25
2023-01-26T19:28:50.487Z,2.70
2023-01-26T19:31:19.782Z,3.20
2023-01-26T19:33:51.951Z,3.20
2023-01-26T19:36:21.064Z,2.17
2023-01-26T19:38:51.029Z,3.03
2023-01-26T19:41:19.807Z,2.53
2023-01-26T19:43:48.435Z,3.08
2023-01-26T19:46:17.952Z,2.97
2023-01-26T19:48:46.860Z,2.95
2023-01-26T19:51:16.885Z,3.03
2023-01-26T19:53:46.252Z,2.95
2023-01-26T19:56:17.834Z,3.25
2023-01-26T19:58:50.891Z,2.85
2023-01-26T20:01:19.899Z,2.78
2023-01-26T20:03:51.387Z,2.92
2023-01-26T20:06:22.033Z,2.80
2023-01-26T20:08:50.956Z,3.80
2023-01-26T20:11:25.050Z,4.40
2023-01-26T20:13:56.820Z,5.43
2023-01-26T20:16:28.330Z,3.20
2023-01-26T20:18:57.502Z,3.60
2023-01-26T20:21:25.875Z,3.15
2023-01-26T20:23:55.960Z,3.20
2023-01-26T20:26:27.632Z,4.90
2023-01-26T20:28:58.303Z,3.20
2023-01-26T20:31:27.682Z,3.38
2023-01-26T20:33:56.931Z,3.40
2023-01-26T20:36:28.817Z,3.47
2023-01-26T20:38:57.648Z,3.55
2023-01-26T20:41:29.035Z,4.30
2023-01-26T20:44:00.868Z,3.50
2023-01-26T20:46:31.286Z,4.20
2023-01-26T20:49:00.417Z,4.00
2023-01-26T20:51:30.691Z,4.18
2023-01-26T20:53:59.454Z,3.22
2023-01-26T20:56:29.245Z,3.08
2023-01-26T20:58:57.730Z,2.28
2023-01-26T21:01:26.852Z,3.25
2023-01-26T21:03:55.782Z,2.50
2023-01-26T21:06:26.170Z,3.85
2023-01-26T21:08:56.381Z,3.00
2023-01-26T21:11:26.544Z,2.80
2023-01-26T21:13:56.616Z,2.70
2023-01-26T21:16:25.366Z,2.42
2023-01-26T21:18:53.980Z,2.25
2023-01-26T21:21:23.973Z,2.30
2023-01-26T21:23:52.518Z,2.65
2023-01-26T21:26:22.651Z,3.50
2023-01-26T21:28:52.200Z,3.17
2023-01-26T21:31:23.568Z,3.30
2023-01-26T21:33:52.973Z,2.70
2023-01-26T21:36:22.679Z,2.80
2023-01-26T21:38:53.378Z,3.25
2023-01-26T21:41:41.073Z,2.90
2023-01-26T21:44:11.726Z,3.08
2023-01-26T21:46:41.495Z,2.83
2023-01-26T21:49:11.355Z,2.47
2023-01-26T21:52:02.612Z,2.33
2023-01-26T21:54:31.880Z,2.75
2023-01-26T21:57:00.882Z,2.70
2023-01-26T21:59:29.121Z,3.20
2023-01-26T22:01:59.774Z,2.67
2023-01-26T22:04:30.114Z,2.55
2023-01-26T22:06:59.916Z,2.83
2023-01-26T22:09:28.450Z,2.40
2023-01-26T22:11:56.694Z,2.60
2023-01-26T22:14:27.046Z,2.08
2023-01-26T22:16:55.265Z,2.55
2023-01-26T22:19:25.982Z,2.20
2023-01-26T22:21:54.732Z,2.05
2023-01-26T22:24:23.118Z,2.40
2023-01-26T22:26:51.471Z,2.30
2023-01-26T22:29:19.981Z,2.10
2023-01-26T22:31:50.572Z,2.70
2023-01-26T22:34:18.998Z,2.83
2023-01-26T22:36:48.955Z,2.17
2023-01-26T22:39:17.205Z,1.83
2023-01-26T22:41:45.467Z,2.20
2023-01-26T22:44:13.799Z,2.13
2023-01-26T22:46:41.975Z,2.50
2023-01-26T22:49:11.540Z,2.65
2023-01-26T22:51:39.970Z,2.28
2023-01-26T22:54:09.744Z,1.92
2023-01-26T22:56:37.970Z,2.08
2023-01-26T22:59:06.369Z,2.42
2023-01-26T23:01:34.595Z,2.10
2023-01-26T23:04:03.292Z,2.38
2023-01-26T23:06:32.101Z,2.10
2023-01-26T23:09:01.292Z,2.17
2023-01-26T23:11:31.507Z,2.55
2023-01-26T23:14:01.062Z,2.53
2023-01-26T23:16:29.882Z,2.00
2023-01-26T23:19:00.216Z,1.98
2023-01-26T23:21:30.086Z,2.10
2023-01-26T23:23:58.520Z,2.50
2023-01-26T23:26:27.248Z,2.10
2023-01-26T23:28:57.415Z,2.33
2023-01-26T23:31:25.657Z,2.33
2023-01-26T23:33:54.013Z,2.10
2023-01-26T23:36:22.764Z,2.20
2023-01-26T23:38:51.080Z,2.25
2023-01-26T23:41:19.665Z,2.30
2023-01-26T23:43:48.074Z,2.15
2023-01-26T23:46:17.723Z,2.22
2023-01-26T23:48:46.015Z,2.10
2023-01-26T23:51:14.789Z,2.20
2023-01-26T23:53:43.059Z,1.90
2023-01-26T23:56:13.682Z,2.05
2023-01-26T23:58:42.606Z,1.73
